sensor_id;sensor_type;location;lat;lon;timestamp;temperature;humidity
38500;DHT22;24269;51.894;4.622;2022-07-29T00:02:03;16.20;99.90
38500;DHT22;24269;51.894;4.622;2022-07-29T00:04:29;16.10;99.90
38500;DHT22;24269;51.894;4.622;2022-07-29T00:06:55;16.10;99.90
38500;DHT22;24269;51.894;4.622;2022-07-29T00:09:20;16.10;99.90
38500;DHT22;24269;51.894;4.622;2022-07-29T00:11:46;16.10;99.90
38500;DHT22;24269;51.894;4.622;2022-07-29T00:14:12;16.10;99.90
38500;DHT22;24269;51.894;4.622;2022-07-29T00:16:37;16.10;99.90
38500;DHT22;24269;51.894;4.622;2022-07-29T00:19:03;16.10;99.90
38500;DHT22;24269;51.894;4.622;2022-07-29T00:21:29;16.10;99.90
38500;DHT22;24269;51.894;4.622;2022-07-29T00:23:54;16.00;99.90
38500;DHT22;24269;51.894;4.622;2022-07-29T00:26:20;16.00;99.90
38500;DHT22;24269;51.894;4.622;2022-07-29T00:28:46;16.00;99.90
38500;DHT22;24269;51.894;4.622;2022-07-29T00:31:12;16.00;99.90
38500;DHT22;24269;51.894;4.622;2022-07-29T00:33:38;16.00;99.90
38500;DHT22;24269;51.894;4.622;2022-07-29T00:36:03;16.00;99.90
38500;DHT22;24269;51.894;4.622;2022-07-29T00:38:29;15.90;99.90
38500;DHT22;24269;51.894;4.622;2022-07-29T00:40:55;16.00;99.90
38500;DHT22;24269;51.894;4.622;2022-07-29T00:43:20;16.00;99.90
38500;DHT22;24269;51.894;4.622;2022-07-29T00:45:46;15.90;99.90
38500;DHT22;24269;51.894;4.622;2022-07-29T00:48:12;15.90;99.90
38500;DHT22;24269;51.894;4.622;2022-07-29T00:50:38;15.90;99.90
38500;DHT22;24269;51.894;4.622;2022-07-29T00:53:06;15.90;99.90
38500;DHT22;24269;51.894;4.622;2022-07-29T00:55:32;15.90;99.90
38500;DHT22;24269;51.894;4.622;2022-07-29T00:57:58;15.80;99.90
38500;DHT22;24269;51.894;4.622;2022-07-29T01:00:26;15.80;99.90
38500;DHT22;24269;51.894;4.622;2022-07-29T01:02:53;15.80;99.90
38500;DHT22;24269;51.894;4.622;2022-07-29T01:05:21;15.70;99.90
38500;DHT22;24269;51.894;4.622;2022-07-29T01:07:49;15.70;99.90
38500;DHT22;24269;51.894;4.622;2022-07-29T01:10:16;15.70;99.90
38500;DHT22;24269;51.894;4.622;2022-07-29T01:12:43;15.70;99.90
38500;DHT22;24269;51.894;4.622;2022-07-29T01:15:10;15.70;99.90
38500;DHT22;24269;51.894;4.622;2022-07-29T01:17:50;15.70;99.90
38500;DHT22;24269;51.894;4.622;2022-07-29T01:20:30;15.70;99.90
38500;DHT22;24269;51.894;4.622;2022-07-29T01:23:35;15.70;99.90
38500;DHT22;24269;51.894;4.622;2022-07-29T01:29:01;15.60;99.90
38500;DHT22;24269;51.894;4.622;2022-07-29T01:35:21;15.60;99.90
38500;DHT22;24269;51.894;4.622;2022-07-29T01:39:46;15.60;99.90
38500;DHT22;24269;51.894;4.622;2022-07-29T01:42:29;15.60;99.90
38500;DHT22;24269;51.894;4.622;2022-07-29T01:47:44;15.60;99.90
38500;DHT22;24269;51.894;4.622;2022-07-29T01:50:14;15.50;99.90
38500;DHT22;24269;51.894;4.622;2022-07-29T01:52:54;15.60;99.90
38500;DHT22;24269;51.894;4.622;2022-07-29T01:55:23;15.60;99.90
38500;DHT22;24269;51.894;4.622;2022-07-29T01:57:50;15.60;99.90
38500;DHT22;24269;51.894;4.622;2022-07-29T02:00:16;15.60;99.90
38500;DHT22;24269;51.894;4.622;2022-07-29T02:02:47;15.60;99.90
38500;DHT22;24269;51.894;4.622;2022-07-29T02:05:18;15.60;99.90
38500;DHT22;24269;51.894;4.622;2022-07-29T02:07:46;15.60;99.90
38500;DHT22;24269;51.894;4.622;2022-07-29T02:10:14;15.50;99.90
38500;DHT22;24269;51.894;4.622;2022-07-29T02:12:42;15.50;99.90
38500;DHT22;24269;51.894;4.622;2022-07-29T02:15:09;15.50;99.90
38500;DHT22;24269;51.894;4.622;2022-07-29T02:17:52;15.50;99.90
38500;DHT22;24269;51.894;4.622;2022-07-29T02:20:19;15.50;99.90
38500;DHT22;24269;51.894;4.622;2022-07-29T02:22:46;15.50;99.90
38500;DHT22;24269;51.894;4.622;2022-07-29T02:25:14;15.40;99.90
38500;DHT22;24269;51.894;4.622;2022-07-29T02:27:42;15.50;99.90
38500;DHT22;24269;51.894;4.622;2022-07-29T02:30:09;15.50;99.90
38500;DHT22;24269;51.894;4.622;2022-07-29T02:32:37;15.40;99.90
38500;DHT22;24269;51.894;4.622;2022-07-29T02:35:06;15.40;99.90
38500;DHT22;24269;51.894;4.622;2022-07-29T02:37:33;15.40;99.90
38500;DHT22;24269;51.894;4.622;2022-07-29T02:40:01;15.40;99.90
38500;DHT22;24269;51.894;4.622;2022-07-29T02:42:31;15.30;99.90
38500;DHT22;24269;51.894;4.622;2022-07-29T02:44:57;15.30;99.90
38500;DHT22;24269;51.894;4.622;2022-07-29T02:47:44;15.30;99.90
38500;DHT22;24269;51.894;4.622;2022-07-29T02:50:16;15.30;99.90
38500;DHT22;24269;51.894;4.622;2022-07-29T02:53:02;15.20;99.90
38500;DHT22;24269;51.894;4.622;2022-07-29T02:55:33;15.20;99.90
38500;DHT22;24269;51.894;4.622;2022-07-29T02:58:08;15.20;99.90
38500;DHT22;24269;51.894;4.622;2022-07-29T03:00:39;15.20;99.90
38500;DHT22;24269;51.894;4.622;2022-07-29T03:03:11;15.20;99.90
38500;DHT22;24269;51.894;4.622;2022-07-29T03:05:37;15.20;99.90
38500;DHT22;24269;51.894;4.622;2022-07-29T03:08:05;15.20;99.90
38500;DHT22;24269;51.894;4.622;2022-07-29T03:10:32;15.20;99.90
38500;DHT22;24269;51.894;4.622;2022-07-29T03:12:58;15.10;99.90
38500;DHT22;24269;51.894;4.622;2022-07-29T03:15:26;15.10;99.90
38500;DHT22;24269;51.894;4.622;2022-07-29T03:17:52;15.10;99.90
38500;DHT22;24269;51.894;4.622;2022-07-29T03:20:19;15.10;99.90
38500;DHT22;24269;51.894;4.622;2022-07-29T03:22:46;15.10;99.90
38500;DHT22;24269;51.894;4.622;2022-07-29T03:25:16;15.10;99.90
38500;DHT22;24269;51.894;4.622;2022-07-29T03:27:42;15.10;99.90
38500;DHT22;24269;51.894;4.622;2022-07-29T03:30:09;15.10;99.90
38500;DHT22;24269;51.894;4.622;2022-07-29T03:32:35;15.10;99.90
38500;DHT22;24269;51.894;4.622;2022-07-29T03:35:01;15.00;99.90
38500;DHT22;24269;51.894;4.622;2022-07-29T03:37:27;15.00;99.90
38500;DHT22;24269;51.894;4.622;2022-07-29T03:39:55;15.00;99.90
38500;DHT22;24269;51.894;4.622;2022-07-29T03:42:26;15.00;99.90
38500;DHT22;24269;51.894;4.622;2022-07-29T03:44:54;14.90;99.90
38500;DHT22;24269;51.894;4.622;2022-07-29T03:47:25;15.00;99.90
38500;DHT22;24269;51.894;4.622;2022-07-29T03:49:55;14.90;99.90
38500;DHT22;24269;51.894;4.622;2022-07-29T03:52:22;14.90;99.90
38500;DHT22;24269;51.894;4.622;2022-07-29T03:54:51;14.90;99.90
38500;DHT22;24269;51.894;4.622;2022-07-29T03:57:18;14.90;99.90
38500;DHT22;24269;51.894;4.622;2022-07-29T03:59:46;14.90;99.90
38500;DHT22;24269;51.894;4.622;2022-07-29T04:02:13;14.90;99.90
38500;DHT22;24269;51.894;4.622;2022-07-29T04:04:39;14.90;99.90
38500;DHT22;24269;51.894;4.622;2022-07-29T04:07:04;14.90;99.90
38500;DHT22;24269;51.894;4.622;2022-07-29T04:09:30;14.90;99.90
38500;DHT22;24269;51.894;4.622;2022-07-29T04:11:56;14.90;99.90
38500;DHT22;24269;51.894;4.622;2022-07-29T04:14:22;14.90;99.90
38500;DHT22;24269;51.894;4.622;2022-07-29T04:16:47;14.90;99.90
38500;DHT22;24269;51.894;4.622;2022-07-29T04:19:15;14.90;99.90
38500;DHT22;24269;51.894;4.622;2022-07-29T04:21:41;14.80;99.90
38500;DHT22;24269;51.894;4.622;2022-07-29T04:24:09;14.90;99.90
38500;DHT22;24269;51.894;4.622;2022-07-29T04:26:37;14.90;99.90
38500;DHT22;24269;51.894;4.622;2022-07-29T04:29:03;14.90;99.90
38500;DHT22;24269;51.894;4.622;2022-07-29T04:31:29;14.80;99.90
38500;DHT22;24269;51.894;4.622;2022-07-29T04:33:54;14.80;99.90
38500;DHT22;24269;51.894;4.622;2022-07-29T04:36:20;14.80;99.90
38500;DHT22;24269;51.894;4.622;2022-07-29T04:38:45;14.80;99.90
38500;DHT22;24269;51.894;4.622;2022-07-29T04:41:11;14.70;99.90
38500;DHT22;24269;51.894;4.622;2022-07-29T04:43:37;14.70;99.90
38500;DHT22;24269;51.894;4.622;2022-07-29T04:46:06;14.70;99.90
38500;DHT22;24269;51.894;4.622;2022-07-29T04:48:32;14.70;99.90
38500;DHT22;24269;51.894;4.622;2022-07-29T04:50:57;14.70;99.90
38500;DHT22;24269;51.894;4.622;2022-07-29T04:53:23;14.70;99.90
38500;DHT22;24269;51.894;4.622;2022-07-29T04:55:49;14.70;99.90
38500;DHT22;24269;51.894;4.622;2022-07-29T04:58:15;14.70;99.90
38500;DHT22;24269;51.894;4.622;2022-07-29T05:00:41;14.70;99.90
38500;DHT22;24269;51.894;4.622;2022-07-29T05:03:07;14.70;99.90
38500;DHT22;24269;51.894;4.622;2022-07-29T05:05:33;14.70;99.90
38500;DHT22;24269;51.894;4.622;2022-07-29T05:07:58;14.70;99.90
38500;DHT22;24269;51.894;4.622;2022-07-29T05:10:24;14.70;99.90
38500;DHT22;24269;51.894;4.622;2022-07-29T05:12:50;14.60;99.90
38500;DHT22;24269;51.894;4.622;2022-07-29T05:15:16;14.70;99.90
38500;DHT22;24269;51.894;4.622;2022-07-29T05:17:43;14.60;99.90
38500;DHT22;24269;51.894;4.622;2022-07-29T05:20:09;14.60;99.90
38500;DHT22;24269;51.894;4.622;2022-07-29T05:22:34;14.70;99.90
38500;DHT22;24269;51.894;4.622;2022-07-29T05:25:03;14.60;99.90
38500;DHT22;24269;51.894;4.622;2022-07-29T05:27:29;14.60;99.90
38500;DHT22;24269;51.894;4.622;2022-07-29T05:29:57;14.60;99.90
38500;DHT22;24269;51.894;4.622;2022-07-29T05:32:26;14.70;99.90
38500;DHT22;24269;51.894;4.622;2022-07-29T05:34:51;14.80;99.90
38500;DHT22;24269;51.894;4.622;2022-07-29T05:37:21;14.80;99.90
38500;DHT22;24269;51.894;4.622;2022-07-29T05:39:46;14.90;99.90
38500;DHT22;24269;51.894;4.622;2022-07-29T05:42:12;15.00;99.90
38500;DHT22;24269;51.894;4.622;2022-07-29T05:44:39;15.10;99.90
38500;DHT22;24269;51.894;4.622;2022-07-29T05:47:05;15.30;99.90
38500;DHT22;24269;51.894;4.622;2022-07-29T05:49:31;15.40;99.90
38500;DHT22;24269;51.894;4.622;2022-07-29T05:51:57;15.50;99.90
38500;DHT22;24269;51.894;4.622;2022-07-29T05:54:23;15.60;99.90
38500;DHT22;24269;51.894;4.622;2022-07-29T05:56:49;15.70;99.90
38500;DHT22;24269;51.894;4.622;2022-07-29T05:59:14;15.70;99.90
38500;DHT22;24269;51.894;4.622;2022-07-29T06:01:40;15.80;99.90
38500;DHT22;24269;51.894;4.622;2022-07-29T06:04:07;15.80;99.90
38500;DHT22;24269;51.894;4.622;2022-07-29T06:06:34;15.80;99.90
38500;DHT22;24269;51.894;4.622;2022-07-29T06:09:00;15.80;99.90
38500;DHT22;24269;51.894;4.622;2022-07-29T06:11:26;15.90;99.90
38500;DHT22;24269;51.894;4.622;2022-07-29T06:13:55;15.80;99.90
38500;DHT22;24269;51.894;4.622;2022-07-29T06:16:23;15.90;99.90
38500;DHT22;24269;51.894;4.622;2022-07-29T06:18:49;15.80;99.90
38500;DHT22;24269;51.894;4.622;2022-07-29T06:21:15;15.80;99.90
38500;DHT22;24269;51.894;4.622;2022-07-29T06:23:44;15.80;99.90
38500;DHT22;24269;51.894;4.622;2022-07-29T06:26:10;15.80;99.90
38500;DHT22;24269;51.894;4.622;2022-07-29T06:28:39;15.80;99.90
38500;DHT22;24269;51.894;4.622;2022-07-29T06:31:05;15.80;99.90
38500;DHT22;24269;51.894;4.622;2022-07-29T06:33:31;15.80;99.90
38500;DHT22;24269;51.894;4.622;2022-07-29T06:35:56;15.90;99.90
38500;DHT22;24269;51.894;4.622;2022-07-29T06:38:22;16.00;99.90
38500;DHT22;24269;51.894;4.622;2022-07-29T06:40:47;16.00;99.90
38500;DHT22;24269;51.894;4.622;2022-07-29T06:43:37;16.10;99.90
38500;DHT22;24269;51.894;4.622;2022-07-29T06:46:08;16.10;99.90
38500;DHT22;24269;51.894;4.622;2022-07-29T06:48:34;16.20;99.90
38500;DHT22;24269;51.894;4.622;2022-07-29T06:51:10;16.30;99.90
38500;DHT22;24269;51.894;4.622;2022-07-29T06:53:39;16.40;99.90
38500;DHT22;24269;51.894;4.622;2022-07-29T06:56:10;16.50;99.90
38500;DHT22;24269;51.894;4.622;2022-07-29T06:58:38;16.50;99.90
38500;DHT22;24269;51.894;4.622;2022-07-29T07:01:05;16.50;99.90
38500;DHT22;24269;51.894;4.622;2022-07-29T07:03:31;16.60;99.90
38500;DHT22;24269;51.894;4.622;2022-07-29T07:05:57;16.70;99.90
38500;DHT22;24269;51.894;4.622;2022-07-29T07:08:35;16.80;99.90
38500;DHT22;24269;51.894;4.622;2022-07-29T07:11:00;16.80;99.90
38500;DHT22;24269;51.894;4.622;2022-07-29T07:13:26;16.90;99.90
38500;DHT22;24269;51.894;4.622;2022-07-29T07:15:53;17.00;99.90
38500;DHT22;24269;51.894;4.622;2022-07-29T07:18:19;17.10;99.90
38500;DHT22;24269;51.894;4.622;2022-07-29T07:20:45;17.20;99.90
38500;DHT22;24269;51.894;4.622;2022-07-29T07:23:10;17.40;99.90
38500;DHT22;24269;51.894;4.622;2022-07-29T07:25:39;17.50;99.90
38500;DHT22;24269;51.894;4.622;2022-07-29T07:28:05;17.70;99.90
38500;DHT22;24269;51.894;4.622;2022-07-29T07:30:30;17.90;99.90
38500;DHT22;24269;51.894;4.622;2022-07-29T07:32:56;18.00;99.90
38500;DHT22;24269;51.894;4.622;2022-07-29T07:35:21;18.20;99.90
38500;DHT22;24269;51.894;4.622;2022-07-29T07:37:47;18.30;99.90
38500;DHT22;24269;51.894;4.622;2022-07-29T07:40:13;18.30;99.90
38500;DHT22;24269;51.894;4.622;2022-07-29T07:42:40;18.40;99.90
38500;DHT22;24269;51.894;4.622;2022-07-29T07:45:07;18.50;99.90
38500;DHT22;24269;51.894;4.622;2022-07-29T07:47:35;18.60;99.90
38500;DHT22;24269;51.894;4.622;2022-07-29T07:50:01;18.60;99.90
38500;DHT22;24269;51.894;4.622;2022-07-29T07:52:27;18.60;99.90
38500;DHT22;24269;51.894;4.622;2022-07-29T07:54:52;18.60;99.90
38500;DHT22;24269;51.894;4.622;2022-07-29T07:57:18;18.70;99.90
38500;DHT22;24269;51.894;4.622;2022-07-29T07:59:44;18.70;99.90
38500;DHT22;24269;51.894;4.622;2022-07-29T08:02:10;18.80;99.90
38500;DHT22;24269;51.894;4.622;2022-07-29T08:04:38;18.80;99.90
38500;DHT22;24269;51.894;4.622;2022-07-29T08:07:09;18.90;99.90
38500;DHT22;24269;51.894;4.622;2022-07-29T08:09:35;19.10;99.90
38500;DHT22;24269;51.894;4.622;2022-07-29T08:12:01;19.30;99.90
38500;DHT22;24269;51.894;4.622;2022-07-29T08:14:29;19.50;99.90
38500;DHT22;24269;51.894;4.622;2022-07-29T08:16:55;19.60;99.90
38500;DHT22;24269;51.894;4.622;2022-07-29T08:19:21;19.70;99.90
38500;DHT22;24269;51.894;4.622;2022-07-29T08:21:48;19.80;99.90
38500;DHT22;24269;51.894;4.622;2022-07-29T08:24:14;19.90;99.90
38500;DHT22;24269;51.894;4.622;2022-07-29T08:26:58;20.10;99.90
38500;DHT22;24269;51.894;4.622;2022-07-29T08:29:24;20.30;99.90
38500;DHT22;24269;51.894;4.622;2022-07-29T08:31:50;20.40;99.90
38500;DHT22;24269;51.894;4.622;2022-07-29T08:34:16;20.50;99.90
38500;DHT22;24269;51.894;4.622;2022-07-29T08:36:42;20.60;99.90
38500;DHT22;24269;51.894;4.622;2022-07-29T08:39:10;20.80;99.90
38500;DHT22;24269;51.894;4.622;2022-07-29T08:41:35;20.90;99.90
38500;DHT22;24269;51.894;4.622;2022-07-29T08:44:01;21.20;99.90
38500;DHT22;24269;51.894;4.622;2022-07-29T08:46:27;21.30;99.90
38500;DHT22;24269;51.894;4.622;2022-07-29T08:48:52;21.20;99.90
38500;DHT22;24269;51.894;4.622;2022-07-29T08:51:20;21.00;99.90
38500;DHT22;24269;51.894;4.622;2022-07-29T08:53:48;20.90;99.90
38500;DHT22;24269;51.894;4.622;2022-07-29T08:56:15;20.80;99.90
38500;DHT22;24269;51.894;4.622;2022-07-29T08:58:46;20.90;99.90
38500;DHT22;24269;51.894;4.622;2022-07-29T09:01:14;20.80;99.90
38500;DHT22;24269;51.894;4.622;2022-07-29T09:03:44;20.90;99.90
38500;DHT22;24269;51.894;4.622;2022-07-29T09:06:15;20.90;99.90
38500;DHT22;24269;51.894;4.622;2022-07-29T09:08:45;21.00;99.90
38500;DHT22;24269;51.894;4.622;2022-07-29T09:11:11;21.10;99.90
38500;DHT22;24269;51.894;4.622;2022-07-29T09:13:38;21.30;99.90
38500;DHT22;24269;51.894;4.622;2022-07-29T09:16:06;21.50;99.90
38500;DHT22;24269;51.894;4.622;2022-07-29T09:18:40;21.30;99.90
38500;DHT22;24269;51.894;4.622;2022-07-29T09:21:08;21.30;99.90
38500;DHT22;24269;51.894;4.622;2022-07-29T09:24:10;21.20;99.90
38500;DHT22;24269;51.894;4.622;2022-07-29T09:26:43;21.30;99.90
38500;DHT22;24269;51.894;4.622;2022-07-29T09:29:11;21.40;99.90
38500;DHT22;24269;51.894;4.622;2022-07-29T09:31:39;21.70;99.90
38500;DHT22;24269;51.894;4.622;2022-07-29T09:34:06;21.80;99.90
38500;DHT22;24269;51.894;4.622;2022-07-29T09:36:46;21.90;99.90
38500;DHT22;24269;51.894;4.622;2022-07-29T09:39:13;22.00;99.90
38500;DHT22;24269;51.894;4.622;2022-07-29T09:41:51;22.30;99.90
38500;DHT22;24269;51.894;4.622;2022-07-29T09:44:45;22.50;99.90
38500;DHT22;24269;51.894;4.622;2022-07-29T09:47:11;22.60;99.90
38500;DHT22;24269;51.894;4.622;2022-07-29T09:49:52;22.70;99.90
38500;DHT22;24269;51.894;4.622;2022-07-29T09:52:19;22.60;99.90
38500;DHT22;24269;51.894;4.622;2022-07-29T09:54:45;22.70;99.90
38500;DHT22;24269;51.894;4.622;2022-07-29T09:57:28;22.70;99.90
38500;DHT22;24269;51.894;4.622;2022-07-29T09:59:58;22.80;99.90
38500;DHT22;24269;51.894;4.622;2022-07-29T10:03:50;23.00;99.90
38500;DHT22;24269;51.894;4.622;2022-07-29T10:06:16;23.30;99.90
38500;DHT22;24269;51.894;4.622;2022-07-29T10:08:41;23.50;99.90
38500;DHT22;24269;51.894;4.622;2022-07-29T10:11:13;23.60;99.90
38500;DHT22;24269;51.894;4.622;2022-07-29T10:13:41;23.90;99.90
38500;DHT22;24269;51.894;4.622;2022-07-29T10:16:07;24.10;99.90
38500;DHT22;24269;51.894;4.622;2022-07-29T10:18:33;24.30;99.90
38500;DHT22;24269;51.894;4.622;2022-07-29T10:21:00;24.30;99.90
38500;DHT22;24269;51.894;4.622;2022-07-29T10:23:30;24.40;99.90
38500;DHT22;24269;51.894;4.622;2022-07-29T10:25:56;24.60;99.90
38500;DHT22;24269;51.894;4.622;2022-07-29T10:28:22;24.60;99.90
38500;DHT22;24269;51.894;4.622;2022-07-29T10:30:50;24.40;99.90
38500;DHT22;24269;51.894;4.622;2022-07-29T10:41:26;24.30;99.90
38500;DHT22;24269;51.894;4.622;2022-07-29T10:44:35;24.40;99.90
38500;DHT22;24269;51.894;4.622;2022-07-29T10:46:54;24.50;99.90
38500;DHT22;24269;51.894;4.622;2022-07-29T10:49:26;24.70;99.90
38500;DHT22;24269;51.894;4.622;2022-07-29T10:52:09;24.80;99.90
38500;DHT22;24269;51.894;4.622;2022-07-29T10:57:30;25.10;99.90
38500;DHT22;24269;51.894;4.622;2022-07-29T11:05:15;25.50;99.90
38500;DHT22;24269;51.894;4.622;2022-07-29T11:10:39;25.30;99.90
38500;DHT22;24269;51.894;4.622;2022-07-29T11:13:05;25.30;99.90
38500;DHT22;24269;51.894;4.622;2022-07-29T11:15:52;25.50;99.90
38500;DHT22;24269;51.894;4.622;2022-07-29T11:18:18;25.40;99.90
38500;DHT22;24269;51.894;4.622;2022-07-29T11:20:48;25.70;99.90
38500;DHT22;24269;51.894;4.622;2022-07-29T11:26:20;26.30;99.90
38500;DHT22;24269;51.894;4.622;2022-07-29T11:31:39;26.40;99.90
38500;DHT22;24269;51.894;4.622;2022-07-29T11:39:41;26.80;99.90
38500;DHT22;24269;51.894;4.622;2022-07-29T11:47:30;26.70;99.90
38500;DHT22;24269;51.894;4.622;2022-07-29T11:49:57;26.70;99.90
38500;DHT22;24269;51.894;4.622;2022-07-29T11:52:24;26.80;99.90
38500;DHT22;24269;51.894;4.622;2022-07-29T11:54:57;26.80;99.90
38500;DHT22;24269;51.894;4.622;2022-07-29T11:57:26;27.00;99.90
38500;DHT22;24269;51.894;4.622;2022-07-29T11:59:53;27.10;98.50
38500;DHT22;24269;51.894;4.622;2022-07-29T12:02:20;27.00;98.90
38500;DHT22;24269;51.894;4.622;2022-07-29T12:04:52;27.00;99.90
38500;DHT22;24269;51.894;4.622;2022-07-29T12:07:18;27.00;99.90
38500;DHT22;24269;51.894;4.622;2022-07-29T12:09:51;27.30;99.90
38500;DHT22;24269;51.894;4.622;2022-07-29T12:12:17;27.20;99.10
38500;DHT22;24269;51.894;4.622;2022-07-29T12:14:43;27.30;99.90
38500;DHT22;24269;51.894;4.622;2022-07-29T12:17:32;27.60;98.10
38500;DHT22;24269;51.894;4.622;2022-07-29T12:20:01;27.40;97.50
38500;DHT22;24269;51.894;4.622;2022-07-29T12:22:39;27.30;98.70
38500;DHT22;24269;51.894;4.622;2022-07-29T12:25:07;27.20;98.60
38500;DHT22;24269;51.894;4.622;2022-07-29T12:27:33;27.30;99.30
38500;DHT22;24269;51.894;4.622;2022-07-29T12:30:00;27.20;99.70
38500;DHT22;24269;51.894;4.622;2022-07-29T12:32:34;27.70;98.00
38500;DHT22;24269;51.894;4.622;2022-07-29T12:35:03;28.00;96.80
38500;DHT22;24269;51.894;4.622;2022-07-29T12:37:30;28.50;98.00
38500;DHT22;24269;51.894;4.622;2022-07-29T12:39:56;28.90;97.80
38500;DHT22;24269;51.894;4.622;2022-07-29T12:42:21;28.60;95.00
38500;DHT22;24269;51.894;4.622;2022-07-29T12:44:50;28.80;96.30
38500;DHT22;24269;51.894;4.622;2022-07-29T12:47:18;28.60;95.30
38500;DHT22;24269;51.894;4.622;2022-07-29T12:49:45;28.50;95.30
38500;DHT22;24269;51.894;4.622;2022-07-29T12:52:28;28.50;95.90
38500;DHT22;24269;51.894;4.622;2022-07-29T12:54:54;28.30;95.90
38500;DHT22;24269;51.894;4.622;2022-07-29T12:57:20;28.60;95.20
38500;DHT22;24269;51.894;4.622;2022-07-29T12:59:58;29.10;95.30
38500;DHT22;24269;51.894;4.622;2022-07-29T13:02:23;29.10;94.00
38500;DHT22;24269;51.894;4.622;2022-07-29T13:05:00;28.90;94.00
38500;DHT22;24269;51.894;4.622;2022-07-29T13:07:28;29.10;93.70
38500;DHT22;24269;51.894;4.622;2022-07-29T13:10:09;28.90;94.80
38500;DHT22;24269;51.894;4.622;2022-07-29T13:12:35;29.20;95.00
38500;DHT22;24269;51.894;4.622;2022-07-29T13:15:13;29.40;95.10
38500;DHT22;24269;51.894;4.622;2022-07-29T13:17:42;29.80;94.10
38500;DHT22;24269;51.894;4.622;2022-07-29T13:20:12;30.20;93.10
38500;DHT22;24269;51.894;4.622;2022-07-29T13:22:38;30.50;91.90
38500;DHT22;24269;51.894;4.622;2022-07-29T13:25:05;30.70;91.20
38500;DHT22;24269;51.894;4.622;2022-07-29T13:27:35;30.90;91.00
38500;DHT22;24269;51.894;4.622;2022-07-29T13:30:06;30.90;90.20
38500;DHT22;24269;51.894;4.622;2022-07-29T13:32:32;30.30;90.00
38500;DHT22;24269;51.894;4.622;2022-07-29T13:35:01;29.50;91.70
38500;DHT22;24269;51.894;4.622;2022-07-29T13:37:28;29.60;92.30
38500;DHT22;24269;51.894;4.622;2022-07-29T13:39:57;29.60;90.40
38500;DHT22;24269;51.894;4.622;2022-07-29T13:42:24;29.00;92.10
38500;DHT22;24269;51.894;4.622;2022-07-29T13:44:50;28.80;92.40
38500;DHT22;24269;51.894;4.622;2022-07-29T13:47:20;29.30;92.80
38500;DHT22;24269;51.894;4.622;2022-07-29T13:49:46;29.90;92.70
38500;DHT22;24269;51.894;4.622;2022-07-29T13:52:12;30.40;91.30
38500;DHT22;24269;51.894;4.622;2022-07-29T13:54:38;30.50;90.50
38500;DHT22;24269;51.894;4.622;2022-07-29T13:57:07;30.60;91.20
38500;DHT22;24269;51.894;4.622;2022-07-29T13:59:33;30.40;91.50
38500;DHT22;24269;51.894;4.622;2022-07-29T14:01:59;30.50;90.70
38500;DHT22;24269;51.894;4.622;2022-07-29T14:04:25;30.70;90.20
38500;DHT22;24269;51.894;4.622;2022-07-29T14:06:51;30.70;91.70
38500;DHT22;24269;51.894;4.622;2022-07-29T14:09:16;30.80;91.00
38500;DHT22;24269;51.894;4.622;2022-07-29T14:11:42;30.80;90.80
38500;DHT22;24269;51.894;4.622;2022-07-29T14:14:07;30.80;90.90
38500;DHT22;24269;51.894;4.622;2022-07-29T14:16:34;30.10;90.90
38500;DHT22;24269;51.894;4.622;2022-07-29T14:18:59;29.70;91.00
38500;DHT22;24269;51.894;4.622;2022-07-29T14:21:25;29.20;92.10
38500;DHT22;24269;51.894;4.622;2022-07-29T14:23:51;29.60;91.80
38500;DHT22;24269;51.894;4.622;2022-07-29T14:26:18;30.50;90.80
38500;DHT22;24269;51.894;4.622;2022-07-29T14:28:43;31.20;90.40
38500;DHT22;24269;51.894;4.622;2022-07-29T14:31:09;31.70;90.50
38500;DHT22;24269;51.894;4.622;2022-07-29T14:33:35;31.70;91.50
38500;DHT22;24269;51.894;4.622;2022-07-29T14:36:00;32.10;91.20
38500;DHT22;24269;51.894;4.622;2022-07-29T14:38:26;32.70;88.70
38500;DHT22;24269;51.894;4.622;2022-07-29T14:40:52;33.20;87.90
38500;DHT22;24269;51.894;4.622;2022-07-29T14:43:17;33.30;86.70
38500;DHT22;24269;51.894;4.622;2022-07-29T14:45:43;33.60;85.60
38500;DHT22;24269;51.894;4.622;2022-07-29T14:48:09;33.30;84.20
38500;DHT22;24269;51.894;4.622;2022-07-29T14:50:36;33.00;83.40
38500;DHT22;24269;51.894;4.622;2022-07-29T14:53:02;32.80;82.80
38500;DHT22;24269;51.894;4.622;2022-07-29T14:55:28;32.90;85.00
38500;DHT22;24269;51.894;4.622;2022-07-29T14:57:54;33.00;83.90
38500;DHT22;24269;51.894;4.622;2022-07-29T15:00:20;33.60;81.30
38500;DHT22;24269;51.894;4.622;2022-07-29T15:02:47;34.20;82.50
38500;DHT22;24269;51.894;4.622;2022-07-29T15:05:12;34.30;77.30
38500;DHT22;24269;51.894;4.622;2022-07-29T15:07:38;34.50;79.30
38500;DHT22;24269;51.894;4.622;2022-07-29T15:10:04;34.80;77.60
38500;DHT22;24269;51.894;4.622;2022-07-29T15:12:31;35.10;76.10
38500;DHT22;24269;51.894;4.622;2022-07-29T15:14:57;35.10;75.50
38500;DHT22;24269;51.894;4.622;2022-07-29T15:17:22;35.30;75.20
38500;DHT22;24269;51.894;4.622;2022-07-29T15:19:48;35.20;73.50
38500;DHT22;24269;51.894;4.622;2022-07-29T15:22:14;35.50;70.90
38500;DHT22;24269;51.894;4.622;2022-07-29T15:24:39;35.30;71.00
38500;DHT22;24269;51.894;4.622;2022-07-29T15:27:05;35.00;68.20
38500;DHT22;24269;51.894;4.622;2022-07-29T15:29:30;35.20;68.60
38500;DHT22;24269;51.894;4.622;2022-07-29T15:31:56;35.60;69.10
38500;DHT22;24269;51.894;4.622;2022-07-29T15:34:21;35.10;67.00
38500;DHT22;24269;51.894;4.622;2022-07-29T15:36:52;34.80;68.30
38500;DHT22;24269;51.894;4.622;2022-07-29T15:39:18;34.90;69.20
38500;DHT22;24269;51.894;4.622;2022-07-29T15:41:43;34.60;66.80
38500;DHT22;24269;51.894;4.622;2022-07-29T15:44:09;34.60;70.10
38500;DHT22;24269;51.894;4.622;2022-07-29T15:46:34;35.20;69.80
38500;DHT22;24269;51.894;4.622;2022-07-29T15:49:18;35.10;65.90
38500;DHT22;24269;51.894;4.622;2022-07-29T15:51:44;34.50;68.30
38500;DHT22;24269;51.894;4.622;2022-07-29T15:54:10;34.70;68.50
38500;DHT22;24269;51.894;4.622;2022-07-29T15:56:35;34.90;68.30
38500;DHT22;24269;51.894;4.622;2022-07-29T15:59:01;34.90;69.30
38500;DHT22;24269;51.894;4.622;2022-07-29T16:01:27;35.00;70.30
38500;DHT22;24269;51.894;4.622;2022-07-29T16:03:52;35.30;68.30
38500;DHT22;24269;51.894;4.622;2022-07-29T16:06:18;34.60;66.70
38500;DHT22;24269;51.894;4.622;2022-07-29T16:08:44;34.40;67.30
38500;DHT22;24269;51.894;4.622;2022-07-29T16:11:09;33.50;65.60
38500;DHT22;24269;51.894;4.622;2022-07-29T16:13:35;32.40;66.70
38500;DHT22;24269;51.894;4.622;2022-07-29T16:16:01;31.10;71.10
38500;DHT22;24269;51.894;4.622;2022-07-29T16:18:26;29.70;73.20
38500;DHT22;24269;51.894;4.622;2022-07-29T16:20:52;28.70;74.60
38500;DHT22;24269;51.894;4.622;2022-07-29T16:23:17;27.90;77.20
38500;DHT22;24269;51.894;4.622;2022-07-29T16:25:43;27.30;78.10